ADDS METAR Data INFO
IDs: Format: Raw Decoded Include TAF

Data at: 2041 UTC 24 Apr 2018

METAR for:KSGH (Springfield Muni, OH, US)
Text:KSGH 241956Z AUTO 09012KT 10SM 12/11 A2992 RMK AO2 RAE15 SLP135 P0000 T01170106 $
Temperature: 11.7°C ( 53°F)
Dewpoint: 10.6°C ( 51°F) [RH = 93%]
Pressure (altimeter):29.92 inches Hg (1013.3 mb) [Sea level pressure: 1013.5 mb]
Winds:from the E (90 degrees) at 14 MPH (12 knots; 6.2 m/s)
Visibility:10 or more sm (16+ km)
QC Flag:automated observation with no human augmentation; SOME DATA ABOVE MAY BE INACCURATE!!!"$" is an indication the sensor requires maintenance.